sensor_id;sensor_type;location;lat;lon;timestamp;P1;durP1;ratioP1;P2;durP2;ratioP2
59938;SDS011;45801;51.810;19.444;2023-09-19T00:00:43;20.80;;;13.50;;
59938;SDS011;45801;51.810;19.444;2023-09-19T00:03:33;16.40;;;12.70;;
59938;SDS011;45801;51.810;19.444;2023-09-19T00:05:59;19.40;;;13.80;;
59938;SDS011;45801;51.810;19.444;2023-09-19T00:08:26;18.10;;;12.80;;
59938;SDS011;45801;51.810;19.444;2023-09-19T00:10:54;18.40;;;13.50;;
59938;SDS011;45801;51.810;19.444;2023-09-19T00:13:21;17.10;;;12.70;;
59938;SDS011;45801;51.810;19.444;2023-09-19T00:15:48;16.30;;;13.00;;
59938;SDS011;45801;51.810;19.444;2023-09-19T00:18:15;17.70;;;13.40;;
59938;SDS011;45801;51.810;19.444;2023-09-19T00:20:43;16.60;;;13.30;;
59938;SDS011;45801;51.810;19.444;2023-09-19T00:23:14;16.00;;;12.90;;
59938;SDS011;45801;51.810;19.444;2023-09-19T00:25:41;17.70;;;13.10;;
59938;SDS011;45801;51.810;19.444;2023-09-19T00:28:08;17.60;;;13.30;;
59938;SDS011;45801;51.810;19.444;2023-09-19T00:30:36;17.10;;;12.70;;
59938;SDS011;45801;51.810;19.444;2023-09-19T00:33:05;16.80;;;12.40;;
59938;SDS011;45801;51.810;19.444;2023-09-19T00:35:33;16.50;;;12.80;;
59938;SDS011;45801;51.810;19.444;2023-09-19T00:38:01;17.40;;;12.60;;
59938;SDS011;45801;51.810;19.444;2023-09-19T00:40:28;18.20;;;13.00;;
59938;SDS011;45801;51.810;19.444;2023-09-19T00:42:59;16.90;;;13.10;;
59938;SDS011;45801;51.810;19.444;2023-09-19T00:47:55;17.40;;;12.70;;
59938;SDS011;45801;51.810;19.444;2023-09-19T00:50:24;16.60;;;12.90;;
59938;SDS011;45801;51.810;19.444;2023-09-19T00:52:53;17.50;;;13.20;;
59938;SDS011;45801;51.810;19.444;2023-09-19T00:55:22;18.60;;;12.80;;
59938;SDS011;45801;51.810;19.444;2023-09-19T00:57:50;16.80;;;13.30;;
59938;SDS011;45801;51.810;19.444;2023-09-19T01:00:18;17.20;;;13.00;;
59938;SDS011;45801;51.810;19.444;2023-09-19T01:02:46;16.60;;;12.60;;
59938;SDS011;45801;51.810;19.444;2023-09-19T01:05:14;16.90;;;13.00;;
59938;SDS011;45801;51.810;19.444;2023-09-19T01:07:41;17.70;;;12.80;;
59938;SDS011;45801;51.810;19.444;2023-09-19T01:10:08;17.20;;;13.50;;
59938;SDS011;45801;51.810;19.444;2023-09-19T01:18:27;18.00;;;12.90;;
59938;SDS011;45801;51.810;19.444;2023-09-19T01:29:49;16.80;;;12.70;;
59938;SDS011;45801;51.810;19.444;2023-09-19T01:32:18;18.50;;;13.40;;
59938;SDS011;45801;51.810;19.444;2023-09-19T01:34:53;16.00;;;12.60;;
59938;SDS011;45801;51.810;19.444;2023-09-19T01:37:23;19.00;;;13.20;;
59938;SDS011;45801;51.810;19.444;2023-09-19T01:39:57;16.80;;;13.80;;
59938;SDS011;45801;51.810;19.444;2023-09-19T01:42:43;18.30;;;13.00;;
59938;SDS011;45801;51.810;19.444;2023-09-19T01:45:13;18.80;;;13.20;;
59938;SDS011;45801;51.810;19.444;2023-09-19T01:47:54;17.40;;;13.20;;
59938;SDS011;45801;51.810;19.444;2023-09-19T01:53:27;16.10;;;12.60;;
59938;SDS011;45801;51.810;19.444;2023-09-19T01:55:59;16.40;;;12.60;;
59938;SDS011;45801;51.810;19.444;2023-09-19T01:58:37;16.20;;;12.60;;
59938;SDS011;45801;51.810;19.444;2023-09-19T02:01:09;16.60;;;12.30;;
59938;SDS011;45801;51.810;19.444;2023-09-19T02:03:39;15.80;;;12.50;;
59938;SDS011;45801;51.810;19.444;2023-09-19T02:06:07;14.90;;;12.00;;
59938;SDS011;45801;51.810;19.444;2023-09-19T02:08:37;17.10;;;13.00;;
59938;SDS011;45801;51.810;19.444;2023-09-19T02:11:04;12.80;;;10.40;;
59938;SDS011;45801;51.810;19.444;2023-09-19T02:13:32;18.20;;;13.80;;
59938;SDS011;45801;51.810;19.444;2023-09-19T02:15:59;16.60;;;13.20;;
59938;SDS011;45801;51.810;19.444;2023-09-19T02:18:26;16.40;;;13.20;;
59938;SDS011;45801;51.810;19.444;2023-09-19T02:20:54;16.60;;;12.60;;
59938;SDS011;45801;51.810;19.444;2023-09-19T02:23:23;15.90;;;12.60;;
59938;SDS011;45801;51.810;19.444;2023-09-19T02:25:53;18.20;;;13.80;;
59938;SDS011;45801;51.810;19.444;2023-09-19T02:28:21;18.30;;;12.80;;
59938;SDS011;45801;51.810;19.444;2023-09-19T02:30:48;16.70;;;12.70;;
59938;SDS011;45801;51.810;19.444;2023-09-19T02:33:16;17.40;;;12.80;;
59938;SDS011;45801;51.810;19.444;2023-09-19T02:35:45;18.00;;;12.10;;
59938;SDS011;45801;51.810;19.444;2023-09-19T02:38:12;15.00;;;11.80;;
59938;SDS011;45801;51.810;19.444;2023-09-19T02:40:38;16.40;;;12.40;;
59938;SDS011;45801;51.810;19.444;2023-09-19T02:43:05;15.10;;;12.60;;
59938;SDS011;45801;51.810;19.444;2023-09-19T02:45:32;18.50;;;14.00;;
59938;SDS011;45801;51.810;19.444;2023-09-19T02:47:58;17.50;;;12.90;;
59938;SDS011;45801;51.810;19.444;2023-09-19T02:50:25;17.80;;;12.30;;
59938;SDS011;45801;51.810;19.444;2023-09-19T02:52:51;18.90;;;13.40;;
59938;SDS011;45801;51.810;19.444;2023-09-19T02:55:18;14.90;;;11.80;;
59938;SDS011;45801;51.810;19.444;2023-09-19T02:57:51;17.50;;;12.50;;
59938;SDS011;45801;51.810;19.444;2023-09-19T03:00:21;16.40;;;12.20;;
59938;SDS011;45801;51.810;19.444;2023-09-19T03:02:52;18.90;;;13.70;;
59938;SDS011;45801;51.810;19.444;2023-09-19T03:05:21;16.60;;;13.40;;
59938;SDS011;45801;51.810;19.444;2023-09-19T03:07:49;17.60;;;13.80;;
59938;SDS011;45801;51.810;19.444;2023-09-19T03:10:19;17.70;;;12.60;;
59938;SDS011;45801;51.810;19.444;2023-09-19T03:12:49;18.50;;;13.40;;
59938;SDS011;45801;51.810;19.444;2023-09-19T03:15:16;18.20;;;14.10;;
59938;SDS011;45801;51.810;19.444;2023-09-19T03:17:46;18.50;;;13.10;;
59938;SDS011;45801;51.810;19.444;2023-09-19T03:20:14;15.60;;;12.50;;
59938;SDS011;45801;51.810;19.444;2023-09-19T03:22:43;19.80;;;14.20;;
59938;SDS011;45801;51.810;19.444;2023-09-19T03:25:10;18.40;;;13.10;;
59938;SDS011;45801;51.810;19.444;2023-09-19T03:27:38;18.70;;;13.30;;
59938;SDS011;45801;51.810;19.444;2023-09-19T03:30:06;19.80;;;13.40;;
59938;SDS011;45801;51.810;19.444;2023-09-19T03:32:35;17.90;;;14.00;;
59938;SDS011;45801;51.810;19.444;2023-09-19T03:35:02;17.50;;;13.00;;
59938;SDS011;45801;51.810;19.444;2023-09-19T03:37:31;18.50;;;14.20;;
59938;SDS011;45801;51.810;19.444;2023-09-19T03:39:59;17.40;;;13.30;;
59938;SDS011;45801;51.810;19.444;2023-09-19T03:42:31;17.60;;;14.20;;
59938;SDS011;45801;51.810;19.444;2023-09-19T03:44:58;19.00;;;13.60;;
59938;SDS011;45801;51.810;19.444;2023-09-19T03:47:26;18.60;;;14.10;;
59938;SDS011;45801;51.810;19.444;2023-09-19T03:49:52;18.40;;;13.80;;
59938;SDS011;45801;51.810;19.444;2023-09-19T03:52:19;18.50;;;14.80;;
59938;SDS011;45801;51.810;19.444;2023-09-19T03:54:45;17.00;;;13.60;;
59938;SDS011;45801;51.810;19.444;2023-09-19T03:57:12;16.70;;;12.90;;
59938;SDS011;45801;51.810;19.444;2023-09-19T03:59:42;19.00;;;14.60;;
59938;SDS011;45801;51.810;19.444;2023-09-19T04:02:09;19.60;;;14.00;;
59938;SDS011;45801;51.810;19.444;2023-09-19T04:04:48;17.80;;;13.70;;
59938;SDS011;45801;51.810;19.444;2023-09-19T04:07:16;18.60;;;14.30;;
59938;SDS011;45801;51.810;19.444;2023-09-19T04:09:43;16.60;;;13.90;;
59938;SDS011;45801;51.810;19.444;2023-09-19T04:12:09;18.20;;;14.00;;
59938;SDS011;45801;51.810;19.444;2023-09-19T04:14:36;16.90;;;13.50;;
59938;SDS011;45801;51.810;19.444;2023-09-19T04:17:02;18.80;;;13.80;;
59938;SDS011;45801;51.810;19.444;2023-09-19T04:19:29;18.80;;;14.50;;
59938;SDS011;45801;51.810;19.444;2023-09-19T04:21:56;19.10;;;13.90;;
59938;SDS011;45801;51.810;19.444;2023-09-19T04:24:23;17.80;;;13.60;;
59938;SDS011;45801;51.810;19.444;2023-09-19T04:26:49;21.80;;;14.60;;
59938;SDS011;45801;51.810;19.444;2023-09-19T04:29:17;22.50;;;14.80;;
59938;SDS011;45801;51.810;19.444;2023-09-19T04:31:45;20.00;;;14.20;;
59938;SDS011;45801;51.810;19.444;2023-09-19T04:34:13;18.50;;;13.40;;
59938;SDS011;45801;51.810;19.444;2023-09-19T04:36:43;17.40;;;14.40;;
59938;SDS011;45801;51.810;19.444;2023-09-19T04:39:10;21.90;;;15.20;;
59938;SDS011;45801;51.810;19.444;2023-09-19T04:41:38;18.40;;;14.40;;
59938;SDS011;45801;51.810;19.444;2023-09-19T04:44:07;22.30;;;15.30;;
59938;SDS011;45801;51.810;19.444;2023-09-19T04:46:34;19.80;;;15.50;;
59938;SDS011;45801;51.810;19.444;2023-09-19T04:49:01;19.20;;;14.60;;
59938;SDS011;45801;51.810;19.444;2023-09-19T04:51:28;19.80;;;14.90;;
59938;SDS011;45801;51.810;19.444;2023-09-19T04:54:00;19.70;;;14.70;;
59938;SDS011;45801;51.810;19.444;2023-09-19T04:56:27;19.70;;;14.90;;
59938;SDS011;45801;51.810;19.444;2023-09-19T04:58:55;19.80;;;14.50;;
59938;SDS011;45801;51.810;19.444;2023-09-19T05:01:25;21.00;;;15.30;;
59938;SDS011;45801;51.810;19.444;2023-09-19T05:03:53;20.50;;;15.30;;
59938;SDS011;45801;51.810;19.444;2023-09-19T05:06:19;27.30;;;17.80;;
59938;SDS011;45801;51.810;19.444;2023-09-19T05:08:50;24.50;;;17.20;;
59938;SDS011;45801;51.810;19.444;2023-09-19T05:11:17;22.60;;;18.10;;
59938;SDS011;45801;51.810;19.444;2023-09-19T05:13:48;23.50;;;16.50;;
59938;SDS011;45801;51.810;19.444;2023-09-19T05:16:19;21.30;;;16.00;;
59938;SDS011;45801;51.810;19.444;2023-09-19T05:18:45;21.40;;;15.80;;
59938;SDS011;45801;51.810;19.444;2023-09-19T05:21:12;20.20;;;16.20;;
59938;SDS011;45801;51.810;19.444;2023-09-19T05:23:39;20.70;;;15.90;;
59938;SDS011;45801;51.810;19.444;2023-09-19T05:26:06;22.10;;;16.00;;
59938;SDS011;45801;51.810;19.444;2023-09-19T05:28:32;25.10;;;17.50;;
59938;SDS011;45801;51.810;19.444;2023-09-19T05:31:01;20.80;;;15.60;;
59938;SDS011;45801;51.810;19.444;2023-09-19T05:33:29;19.90;;;14.10;;
59938;SDS011;45801;51.810;19.444;2023-09-19T05:35:57;20.00;;;15.90;;
59938;SDS011;45801;51.810;19.444;2023-09-19T05:38:25;19.00;;;14.70;;
59938;SDS011;45801;51.810;19.444;2023-09-19T05:40:53;18.80;;;14.40;;
59938;SDS011;45801;51.810;19.444;2023-09-19T05:43:20;18.10;;;14.10;;
59938;SDS011;45801;51.810;19.444;2023-09-19T05:45:47;24.80;;;16.00;;
59938;SDS011;45801;51.810;19.444;2023-09-19T05:48:14;29.30;;;15.20;;
59938;SDS011;45801;51.810;19.444;2023-09-19T05:50:42;23.50;;;16.00;;
59938;SDS011;45801;51.810;19.444;2023-09-19T05:53:09;20.50;;;14.30;;
59938;SDS011;45801;51.810;19.444;2023-09-19T05:55:39;25.30;;;14.80;;
59938;SDS011;45801;51.810;19.444;2023-09-19T05:58:05;21.30;;;14.50;;
59938;SDS011;45801;51.810;19.444;2023-09-19T06:00:32;20.20;;;14.00;;
59938;SDS011;45801;51.810;19.444;2023-09-19T06:02:59;20.40;;;14.10;;
59938;SDS011;45801;51.810;19.444;2023-09-19T06:05:26;19.00;;;13.00;;
59938;SDS011;45801;51.810;19.444;2023-09-19T06:07:54;18.20;;;13.40;;
59938;SDS011;45801;51.810;19.444;2023-09-19T06:10:21;18.90;;;14.60;;
59938;SDS011;45801;51.810;19.444;2023-09-19T06:12:49;20.20;;;14.50;;
59938;SDS011;45801;51.810;19.444;2023-09-19T06:15:16;22.00;;;15.80;;
59938;SDS011;45801;51.810;19.444;2023-09-19T06:17:51;20.50;;;14.60;;
59938;SDS011;45801;51.810;19.444;2023-09-19T06:20:25;19.30;;;14.30;;
59938;SDS011;45801;51.810;19.444;2023-09-19T06:22:53;21.80;;;14.60;;
59938;SDS011;45801;51.810;19.444;2023-09-19T06:25:20;22.60;;;14.40;;
59938;SDS011;45801;51.810;19.444;2023-09-19T06:28:00;23.90;;;14.90;;
59938;SDS011;45801;51.810;19.444;2023-09-19T06:30:31;21.20;;;14.10;;
59938;SDS011;45801;51.810;19.444;2023-09-19T06:32:58;19.70;;;14.00;;
59938;SDS011;45801;51.810;19.444;2023-09-19T06:35:27;18.90;;;13.50;;
59938;SDS011;45801;51.810;19.444;2023-09-19T06:37:55;16.50;;;12.30;;
59938;SDS011;45801;51.810;19.444;2023-09-19T06:40:24;17.60;;;12.80;;
59938;SDS011;45801;51.810;19.444;2023-09-19T06:42:52;18.80;;;13.40;;
59938;SDS011;45801;51.810;19.444;2023-09-19T06:45:20;16.10;;;11.80;;
59938;SDS011;45801;51.810;19.444;2023-09-19T06:47:49;17.60;;;11.70;;
59938;SDS011;45801;51.810;19.444;2023-09-19T06:50:17;14.10;;;10.90;;
59938;SDS011;45801;51.810;19.444;2023-09-19T06:52:46;17.20;;;11.90;;
59938;SDS011;45801;51.810;19.444;2023-09-19T06:55:16;15.90;;;10.60;;
59938;SDS011;45801;51.810;19.444;2023-09-19T06:57:47;15.10;;;11.10;;
59938;SDS011;45801;51.810;19.444;2023-09-19T07:00:14;15.40;;;11.00;;
59938;SDS011;45801;51.810;19.444;2023-09-19T07:02:55;15.20;;;9.80;;
59938;SDS011;45801;51.810;19.444;2023-09-19T07:05:23;15.90;;;10.20;;
59938;SDS011;45801;51.810;19.444;2023-09-19T07:07:50;15.00;;;9.10;;
59938;SDS011;45801;51.810;19.444;2023-09-19T07:10:16;13.70;;;9.40;;
59938;SDS011;45801;51.810;19.444;2023-09-19T07:12:45;14.60;;;9.30;;
59938;SDS011;45801;51.810;19.444;2023-09-19T07:15:13;13.00;;;8.00;;
59938;SDS011;45801;51.810;19.444;2023-09-19T07:17:39;12.20;;;8.30;;
59938;SDS011;45801;51.810;19.444;2023-09-19T07:20:06;14.50;;;8.70;;
59938;SDS011;45801;51.810;19.444;2023-09-19T07:22:34;13.40;;;8.40;;
59938;SDS011;45801;51.810;19.444;2023-09-19T07:25:01;14.90;;;9.50;;
59938;SDS011;45801;51.810;19.444;2023-09-19T07:27:27;14.20;;;9.50;;
59938;SDS011;45801;51.810;19.444;2023-09-19T07:29:55;12.70;;;8.80;;
59938;SDS011;45801;51.810;19.444;2023-09-19T07:32:21;13.50;;;8.50;;
59938;SDS011;45801;51.810;19.444;2023-09-19T07:34:48;14.20;;;9.10;;
59938;SDS011;45801;51.810;19.444;2023-09-19T07:37:14;13.70;;;9.00;;
59938;SDS011;45801;51.810;19.444;2023-09-19T07:39:42;12.60;;;7.60;;
59938;SDS011;45801;51.810;19.444;2023-09-19T07:42:10;11.00;;;7.10;;
59938;SDS011;45801;51.810;19.444;2023-09-19T07:44:39;12.80;;;7.60;;
59938;SDS011;45801;51.810;19.444;2023-09-19T07:47:05;11.20;;;7.20;;
59938;SDS011;45801;51.810;19.444;2023-09-19T07:49:33;12.70;;;6.30;;
59938;SDS011;45801;51.810;19.444;2023-09-19T07:52:00;12.50;;;6.00;;
59938;SDS011;45801;51.810;19.444;2023-09-19T07:54:27;9.90;;;5.00;;
59938;SDS011;45801;51.810;19.444;2023-09-19T07:56:56;8.80;;;5.00;;
59938;SDS011;45801;51.810;19.444;2023-09-19T07:59:24;11.20;;;5.10;;
59938;SDS011;45801;51.810;19.444;2023-09-19T08:01:50;9.90;;;4.60;;
59938;SDS011;45801;51.810;19.444;2023-09-19T08:04:17;8.80;;;4.30;;
59938;SDS011;45801;51.810;19.444;2023-09-19T08:06:46;9.80;;;4.60;;
59938;SDS011;45801;51.810;19.444;2023-09-19T08:09:12;8.70;;;4.10;;
59938;SDS011;45801;51.810;19.444;2023-09-19T08:11:46;10.20;;;4.30;;
59938;SDS011;45801;51.810;19.444;2023-09-19T08:14:14;11.10;;;4.60;;
59938;SDS011;45801;51.810;19.444;2023-09-19T08:16:40;7.80;;;3.70;;
59938;SDS011;45801;51.810;19.444;2023-09-19T08:19:09;8.40;;;3.90;;
59938;SDS011;45801;51.810;19.444;2023-09-19T08:21:36;10.20;;;4.60;;
59938;SDS011;45801;51.810;19.444;2023-09-19T08:24:03;9.10;;;4.30;;
59938;SDS011;45801;51.810;19.444;2023-09-19T08:26:30;9.80;;;4.20;;
59938;SDS011;45801;51.810;19.444;2023-09-19T08:28:58;10.30;;;4.40;;
59938;SDS011;45801;51.810;19.444;2023-09-19T08:31:27;8.20;;;3.90;;
59938;SDS011;45801;51.810;19.444;2023-09-19T08:33:54;8.70;;;4.50;;
59938;SDS011;45801;51.810;19.444;2023-09-19T08:36:24;10.00;;;4.20;;
59938;SDS011;45801;51.810;19.444;2023-09-19T08:38:54;10.00;;;4.30;;
59938;SDS011;45801;51.810;19.444;2023-09-19T08:41:21;9.50;;;4.30;;
59938;SDS011;45801;51.810;19.444;2023-09-19T08:43:48;9.70;;;4.10;;
59938;SDS011;45801;51.810;19.444;2023-09-19T08:46:17;9.20;;;4.60;;
59938;SDS011;45801;51.810;19.444;2023-09-19T08:48:48;10.60;;;5.00;;
59938;SDS011;45801;51.810;19.444;2023-09-19T08:51:27;9.60;;;4.90;;
59938;SDS011;45801;51.810;19.444;2023-09-19T08:54:07;10.40;;;4.80;;
59938;SDS011;45801;51.810;19.444;2023-09-19T08:56:37;9.30;;;5.40;;
59938;SDS011;45801;51.810;19.444;2023-09-19T08:59:06;11.90;;;6.10;;
59938;SDS011;45801;51.810;19.444;2023-09-19T09:01:35;10.80;;;6.00;;
59938;SDS011;45801;51.810;19.444;2023-09-19T09:04:08;10.70;;;5.80;;
59938;SDS011;45801;51.810;19.444;2023-09-19T09:06:39;10.00;;;6.10;;
59938;SDS011;45801;51.810;19.444;2023-09-19T09:09:09;9.30;;;6.10;;
59938;SDS011;45801;51.810;19.444;2023-09-19T09:11:37;11.80;;;6.00;;
59938;SDS011;45801;51.810;19.444;2023-09-19T09:14:07;10.80;;;6.20;;
59938;SDS011;45801;51.810;19.444;2023-09-19T09:16:34;11.40;;;6.70;;
59938;SDS011;45801;51.810;19.444;2023-09-19T09:19:00;12.60;;;6.90;;
59938;SDS011;45801;51.810;19.444;2023-09-19T09:21:27;8.90;;;5.70;;
59938;SDS011;45801;51.810;19.444;2023-09-19T09:24:00;11.70;;;7.00;;
59938;SDS011;45801;51.810;19.444;2023-09-19T09:26:55;10.50;;;6.70;;
59938;SDS011;45801;51.810;19.444;2023-09-19T09:32:22;11.20;;;7.50;;
59938;SDS011;45801;51.810;19.444;2023-09-19T09:34:54;10.80;;;7.70;;
59938;SDS011;45801;51.810;19.444;2023-09-19T09:37:23;10.50;;;6.40;;
59938;SDS011;45801;51.810;19.444;2023-09-19T09:39:56;12.50;;;7.90;;
59938;SDS011;45801;51.810;19.444;2023-09-19T09:42:46;12.80;;;9.00;;
59938;SDS011;45801;51.810;19.444;2023-09-19T09:45:21;9.40;;;6.70;;
59938;SDS011;45801;51.810;19.444;2023-09-19T09:48:00;11.70;;;7.10;;
59938;SDS011;45801;51.810;19.444;2023-09-19T09:50:31;11.50;;;8.40;;
59938;SDS011;45801;51.810;19.444;2023-09-19T09:53:24;10.60;;;7.10;;
59938;SDS011;45801;51.810;19.444;2023-09-19T09:56:01;13.10;;;9.10;;
59938;SDS011;45801;51.810;19.444;2023-09-19T09:58:36;11.60;;;7.30;;
59938;SDS011;45801;51.810;19.444;2023-09-19T10:01:06;11.30;;;7.00;;
59938;SDS011;45801;51.810;19.444;2023-09-19T10:03:38;10.80;;;7.10;;
59938;SDS011;45801;51.810;19.444;2023-09-19T10:06:06;9.70;;;6.90;;
59938;SDS011;45801;51.810;19.444;2023-09-19T10:11:47;11.90;;;9.10;;
59938;SDS011;45801;51.810;19.444;2023-09-19T10:14:20;9.30;;;6.60;;
59938;SDS011;45801;51.810;19.444;2023-09-19T10:16:51;13.40;;;9.60;;
59938;SDS011;45801;51.810;19.444;2023-09-19T10:19:29;12.90;;;8.30;;
59938;SDS011;45801;51.810;19.444;2023-09-19T10:22:01;10.70;;;8.60;;
59938;SDS011;45801;51.810;19.444;2023-09-19T10:24:28;10.40;;;6.00;;
59938;SDS011;45801;51.810;19.444;2023-09-19T10:26:59;10.70;;;7.50;;
59938;SDS011;45801;51.810;19.444;2023-09-19T10:29:27;9.60;;;6.60;;
59938;SDS011;45801;51.810;19.444;2023-09-19T10:31:57;10.80;;;9.20;;
59938;SDS011;45801;51.810;19.444;2023-09-19T10:34:24;11.20;;;8.60;;
59938;SDS011;45801;51.810;19.444;2023-09-19T10:36:52;10.70;;;7.90;;
59938;SDS011;45801;51.810;19.444;2023-09-19T10:39:19;11.70;;;9.30;;
59938;SDS011;45801;51.810;19.444;2023-09-19T10:41:47;13.50;;;9.20;;
59938;SDS011;45801;51.810;19.444;2023-09-19T10:44:21;11.40;;;8.50;;
59938;SDS011;45801;51.810;19.444;2023-09-19T10:46:56;11.40;;;8.10;;
59938;SDS011;45801;51.810;19.444;2023-09-19T10:49:23;9.90;;;6.20;;
59938;SDS011;45801;51.810;19.444;2023-09-19T10:51:55;11.80;;;8.40;;
59938;SDS011;45801;51.810;19.444;2023-09-19T10:54:30;11.10;;;7.70;;
59938;SDS011;45801;51.810;19.444;2023-09-19T10:57:00;13.10;;;6.90;;
59938;SDS011;45801;51.810;19.444;2023-09-19T10:59:31;11.20;;;8.60;;
59938;SDS011;45801;51.810;19.444;2023-09-19T11:02:15;10.80;;;8.10;;
59938;SDS011;45801;51.810;19.444;2023-09-19T11:07:13;10.70;;;8.30;;
59938;SDS011;45801;51.810;19.444;2023-09-19T11:09:45;11.70;;;7.70;;
59938;SDS011;45801;51.810;19.444;2023-09-19T11:14:55;10.00;;;6.70;;
59938;SDS011;45801;51.810;19.444;2023-09-19T11:30:32;9.00;;;6.80;;
59938;SDS011;45801;51.810;19.444;2023-09-19T11:33:16;9.60;;;5.90;;
59938;SDS011;45801;51.810;19.444;2023-09-19T11:49:19;11.10;;;6.20;;
59938;SDS011;45801;51.810;19.444;2023-09-19T11:51:56;7.90;;;5.10;;
59938;SDS011;45801;51.810;19.444;2023-09-19T11:54:23;10.10;;;6.20;;
59938;SDS011;45801;51.810;19.444;2023-09-19T11:56:54;9.50;;;5.20;;
59938;SDS011;45801;51.810;19.444;2023-09-19T11:59:21;10.30;;;6.00;;
59938;SDS011;45801;51.810;19.444;2023-09-19T12:01:52;9.80;;;6.40;;
59938;SDS011;45801;51.810;19.444;2023-09-19T12:04:42;8.00;;;4.90;;
59938;SDS011;45801;51.810;19.444;2023-09-19T12:07:12;8.60;;;4.50;;
59938;SDS011;45801;51.810;19.444;2023-09-19T12:09:43;10.00;;;5.70;;
59938;SDS011;45801;51.810;19.444;2023-09-19T12:12:20;9.40;;;5.70;;
59938;SDS011;45801;51.810;19.444;2023-09-19T12:14:49;8.90;;;5.40;;
59938;SDS011;45801;51.810;19.444;2023-09-19T12:17:17;8.30;;;5.20;;
59938;SDS011;45801;51.810;19.444;2023-09-19T12:19:51;10.30;;;5.40;;
59938;SDS011;45801;51.810;19.444;2023-09-19T12:22:18;8.40;;;4.40;;
59938;SDS011;45801;51.810;19.444;2023-09-19T12:24:46;8.70;;;4.50;;
59938;SDS011;45801;51.810;19.444;2023-09-19T12:27:14;8.00;;;4.90;;
59938;SDS011;45801;51.810;19.444;2023-09-19T12:29:48;8.70;;;4.70;;
59938;SDS011;45801;51.810;19.444;2023-09-19T12:32:15;7.80;;;4.30;;
59938;SDS011;45801;51.810;19.444;2023-09-19T12:34:49;9.20;;;4.40;;
59938;SDS011;45801;51.810;19.444;2023-09-19T12:37:18;9.10;;;4.10;;
59938;SDS011;45801;51.810;19.444;2023-09-19T12:39:49;9.30;;;4.10;;
59938;SDS011;45801;51.810;19.444;2023-09-19T12:42:18;8.90;;;4.00;;
59938;SDS011;45801;51.810;19.444;2023-09-19T12:44:47;7.50;;;3.70;;
59938;SDS011;45801;51.810;19.444;2023-09-19T12:47:18;8.30;;;3.60;;
59938;SDS011;45801;51.810;19.444;2023-09-19T12:52:50;7.60;;;3.40;;
59938;SDS011;45801;51.810;19.444;2023-09-19T12:55:24;7.70;;;3.30;;
59938;SDS011;45801;51.810;19.444;2023-09-19T12:58:02;6.00;;;2.80;;
59938;SDS011;45801;51.810;19.444;2023-09-19T13:00:36;7.50;;;2.90;;
59938;SDS011;45801;51.810;19.444;2023-09-19T13:03:12;6.70;;;2.60;;
59938;SDS011;45801;51.810;19.444;2023-09-19T13:05:52;6.20;;;2.60;;
59938;SDS011;45801;51.810;19.444;2023-09-19T13:08:23;7.30;;;2.80;;
59938;SDS011;45801;51.810;19.444;2023-09-19T13:11:11;7.00;;;2.30;;
59938;SDS011;45801;51.810;19.444;2023-09-19T13:13:42;5.40;;;2.30;;
59938;SDS011;45801;51.810;19.444;2023-09-19T13:16:11;6.00;;;2.40;;
59938;SDS011;45801;51.810;19.444;2023-09-19T13:18:41;4.90;;;2.30;;
59938;SDS011;45801;51.810;19.444;2023-09-19T13:21:12;5.90;;;2.10;;
59938;SDS011;45801;51.810;19.444;2023-09-19T13:23:52;5.30;;;2.20;;
59938;SDS011;45801;51.810;19.444;2023-09-19T13:26:25;6.50;;;2.30;;
59938;SDS011;45801;51.810;19.444;2023-09-19T13:28:52;6.60;;;2.40;;
59938;SDS011;45801;51.810;19.444;2023-09-19T13:31:18;5.80;;;2.10;;
59938;SDS011;45801;51.810;19.444;2023-09-19T13:33:45;6.10;;;2.20;;
59938;SDS011;45801;51.810;19.444;2023-09-19T13:36:13;6.80;;;2.30;;
59938;SDS011;45801;51.810;19.444;2023-09-19T13:38:43;6.10;;;2.20;;
59938;SDS011;45801;51.810;19.444;2023-09-19T13:41:10;7.10;;;2.10;;
59938;SDS011;45801;51.810;19.444;2023-09-19T13:43:37;7.20;;;2.20;;
59938;SDS011;45801;51.810;19.444;2023-09-19T13:46:05;5.20;;;2.20;;
59938;SDS011;45801;51.810;19.444;2023-09-19T13:48:38;5.90;;;2.30;;
59938;SDS011;45801;51.810;19.444;2023-09-19T13:51:04;5.50;;;2.20;;
59938;SDS011;45801;51.810;19.444;2023-09-19T13:53:31;8.20;;;2.60;;
59938;SDS011;45801;51.810;19.444;2023-09-19T13:55:57;5.10;;;2.00;;
59938;SDS011;45801;51.810;19.444;2023-09-19T13:58:24;5.90;;;1.90;;
59938;SDS011;45801;51.810;19.444;2023-09-19T14:00:51;8.80;;;2.40;;
59938;SDS011;45801;51.810;19.444;2023-09-19T14:03:21;5.60;;;2.30;;
59938;SDS011;45801;51.810;19.444;2023-09-19T14:05:48;7.10;;;2.40;;
59938;SDS011;45801;51.810;19.444;2023-09-19T14:08:15;6.70;;;2.70;;
59938;SDS011;45801;51.810;19.444;2023-09-19T14:10:41;6.90;;;2.20;;
59938;SDS011;45801;51.810;19.444;2023-09-19T14:13:08;5.80;;;2.10;;
59938;SDS011;45801;51.810;19.444;2023-09-19T14:15:36;6.90;;;2.10;;
59938;SDS011;45801;51.810;19.444;2023-09-19T14:18:04;6.70;;;1.90;;
59938;SDS011;45801;51.810;19.444;2023-09-19T14:20:31;7.20;;;2.10;;
59938;SDS011;45801;51.810;19.444;2023-09-19T14:22:58;4.40;;;1.70;;
59938;SDS011;45801;51.810;19.444;2023-09-19T14:25:28;4.20;;;1.40;;
59938;SDS011;45801;51.810;19.444;2023-09-19T14:27:57;6.50;;;1.80;;
59938;SDS011;45801;51.810;19.444;2023-09-19T14:30:23;4.50;;;1.60;;
59938;SDS011;45801;51.810;19.444;2023-09-19T14:32:50;4.40;;;1.30;;
59938;SDS011;45801;51.810;19.444;2023-09-19T14:35:18;4.60;;;1.60;;
59938;SDS011;45801;51.810;19.444;2023-09-19T14:37:44;6.20;;;1.60;;
59938;SDS011;45801;51.810;19.444;2023-09-19T14:40:12;4.30;;;1.40;;
59938;SDS011;45801;51.810;19.444;2023-09-19T14:42:41;4.70;;;1.70;;
59938;SDS011;45801;51.810;19.444;2023-09-19T14:45:10;5.10;;;1.60;;
59938;SDS011;45801;51.810;19.444;2023-09-19T14:47:38;4.00;;;1.60;;
59938;SDS011;45801;51.810;19.444;2023-09-19T14:50:04;4.30;;;1.40;;
59938;SDS011;45801;51.810;19.444;2023-09-19T14:52:33;6.50;;;1.60;;
59938;SDS011;45801;51.810;19.444;2023-09-19T14:55:00;4.30;;;1.50;;
59938;SDS011;45801;51.810;19.444;2023-09-19T14:57:29;4.90;;;2.00;;
59938;SDS011;45801;51.810;19.444;2023-09-19T14:59:55;5.30;;;1.90;;
59938;SDS011;45801;51.810;19.444;2023-09-19T15:02:22;5.70;;;2.00;;
59938;SDS011;45801;51.810;19.444;2023-09-19T15:04:48;5.40;;;2.30;;
59938;SDS011;45801;51.810;19.444;2023-09-19T15:07:17;4.30;;;1.60;;
59938;SDS011;45801;51.810;19.444;2023-09-19T15:09:43;6.30;;;2.30;;
59938;SDS011;45801;51.810;19.444;2023-09-19T15:12:10;4.20;;;1.90;;
59938;SDS011;45801;51.810;19.444;2023-09-19T15:14:40;5.40;;;2.00;;
59938;SDS011;45801;51.810;19.444;2023-09-19T15:17:10;5.70;;;1.80;;
59938;SDS011;45801;51.810;19.444;2023-09-19T15:19:37;5.40;;;2.30;;
59938;SDS011;45801;51.810;19.444;2023-09-19T15:22:04;6.10;;;2.10;;
59938;SDS011;45801;51.810;19.444;2023-09-19T15:24:32;5.90;;;2.00;;
59938;SDS011;45801;51.810;19.444;2023-09-19T15:26:58;7.30;;;2.40;;
59938;SDS011;45801;51.810;19.444;2023-09-19T15:29:25;7.30;;;2.20;;
59938;SDS011;45801;51.810;19.444;2023-09-19T15:31:51;6.20;;;1.80;;